Hlavní strana
METAR-TAF:

METAR-TAF

Letiště :

Chartúm, Súdán

zeměpisná šířka: 15-36N, zeměpisná délka: 032-33E, výška: 382 m

Aktuální stav počasí

Zpráva byla vytvořena před 1 hodinou a 5 minutami, v 15:00 UTC
Severoseverozápadní vítr 9 kt
Teplota 37°C
Vlhkost vzduchu 7%
Tlak 1007 hPa
Viditelnost 10 km a více
Žádná oblačnost pod 1500 m, nevyskytují se cumulonimby.

METAR: HSSS 201500Z 34009KT CAVOK 37/M05 Q1007 NOSIG

Čas: 19:05 (16:05 UTC)

Předpověď počasí

Zpráva byla vytvořena před 5 hodinami a 5 minutami, v 11:00 UTC
Předpověď platná od 20 v 12 UTC do 21 v 18 UTC
Severní vítr 12 kt s nárazy do 20 kt
Viditelnost 10 km a více
Žádná oblačnost pod 1500 m, nevyskytují se cumulonimby.

TAF: HSSS 201100Z 2012/2118 36012G20KT CAVOK

Stav a předpovědi počasí z více než 4 000 letišť (zprávy METAR a TAF).

Červené a žluté tečky na mapě představují dostupné meteorologické stanice.

Když kurzor umístíte na tečku, zobrazí se název stanice.

Pak kliknutím zobrazíte stav a předpověď počasí.

Chcete-li změnit mapu, kliknutím na zelené tlačítko se znaménkem +mapu přiblížíte, kliknutím na zelené tlačítko se znaménkem – mapu oddálíte a kliknutím na zelené šipky přejdete na sousední mapy.


METAR-TAF: